sensor_id;sensor_type;location;lat;lon;timestamp;pressure;altitude;pressure_sealevel;temperature;humidity
54808;BME280;40708;50.364;7.550;2022-07-22T00:01:42;100914.78;;;19.14;100.00
54808;BME280;40708;50.364;7.550;2022-07-22T00:04:08;100907.16;;;18.98;100.00
54808;BME280;40708;50.364;7.550;2022-07-22T00:06:33;100913.34;;;19.02;100.00
54808;BME280;40708;50.364;7.550;2022-07-22T00:08:58;100909.75;;;19.01;100.00
54808;BME280;40708;50.364;7.550;2022-07-22T00:11:24;100913.28;;;19.03;100.00
54808;BME280;40708;50.364;7.550;2022-07-22T00:13:49;100912.38;;;19.05;100.00
54808;BME280;40708;50.364;7.550;2022-07-22T00:16:16;100914.13;;;19.06;100.00
54808;BME280;40708;50.364;7.550;2022-07-22T00:18:41;100909.63;;;19.06;100.00
54808;BME280;40708;50.364;7.550;2022-07-22T00:21:07;100907.97;;;19.02;100.00
54808;BME280;40708;50.364;7.550;2022-07-22T00:23:32;100909.78;;;19.00;100.00
54808;BME280;40708;50.364;7.550;2022-07-22T00:25:58;100906.41;;;18.92;100.00
54808;BME280;40708;50.364;7.550;2022-07-22T00:28:23;100905.63;;;18.88;100.00
54808;BME280;40708;50.364;7.550;2022-07-22T00:30:49;100903.78;;;18.90;100.00
54808;BME280;40708;50.364;7.550;2022-07-22T00:33:14;100900.34;;;18.85;100.00
54808;BME280;40708;50.364;7.550;2022-07-22T00:35:40;100896.00;;;18.80;100.00
54808;BME280;40708;50.364;7.550;2022-07-22T00:38:05;100902.34;;;18.77;100.00
54808;BME280;40708;50.364;7.550;2022-07-22T00:40:30;100899.66;;;18.77;100.00
54808;BME280;40708;50.364;7.550;2022-07-22T00:42:56;100901.47;;;18.75;100.00
54808;BME280;40708;50.364;7.550;2022-07-22T00:45:21;100896.22;;;18.71;100.00
54808;BME280;40708;50.364;7.550;2022-07-22T00:47:46;100898.16;;;18.66;100.00
54808;BME280;40708;50.364;7.550;2022-07-22T00:50:12;100900.91;;;18.64;100.00
54808;BME280;40708;50.364;7.550;2022-07-22T00:52:42;100898.22;;;18.63;100.00
54808;BME280;40708;50.364;7.550;2022-07-22T00:55:09;100896.38;;;18.65;100.00
54808;BME280;40708;50.364;7.550;2022-07-22T00:57:34;100900.72;;;18.70;100.00
54808;BME280;40708;50.364;7.550;2022-07-22T01:00:00;100894.38;;;18.73;100.00
54808;BME280;40708;50.364;7.550;2022-07-22T01:02:26;100897.03;;;18.74;100.00
54808;BME280;40708;50.364;7.550;2022-07-22T01:04:51;100896.97;;;18.77;100.00
54808;BME280;40708;50.364;7.550;2022-07-22T01:07:16;100896.03;;;18.78;100.00
54808;BME280;40708;50.364;7.550;2022-07-22T01:09:43;100895.19;;;18.76;100.00
54808;BME280;40708;50.364;7.550;2022-07-22T01:12:09;100894.31;;;18.76;100.00
54808;BME280;40708;50.364;7.550;2022-07-22T01:14:34;100891.69;;;18.73;100.00
54808;BME280;40708;50.364;7.550;2022-07-22T01:16:59;100893.38;;;18.77;100.00
54808;BME280;40708;50.364;7.550;2022-07-22T01:19:25;100890.56;;;18.81;100.00
54808;BME280;40708;50.364;7.550;2022-07-22T01:21:50;100886.22;;;18.77;100.00
54808;BME280;40708;50.364;7.550;2022-07-22T01:24:15;100888.09;;;18.74;100.00
54808;BME280;40708;50.364;7.550;2022-07-22T01:26:41;100891.06;;;18.62;100.00
54808;BME280;40708;50.364;7.550;2022-07-22T01:29:07;100890.16;;;18.64;100.00
54808;BME280;40708;50.364;7.550;2022-07-22T01:31:33;100890.97;;;18.66;100.00
54808;BME280;40708;50.364;7.550;2022-07-22T01:33:58;100892.94;;;18.60;100.00
54808;BME280;40708;50.364;7.550;2022-07-22T01:36:24;100886.56;;;18.64;100.00
54808;BME280;40708;50.364;7.550;2022-07-22T01:38:49;100888.53;;;18.57;100.00
54808;BME280;40708;50.364;7.550;2022-07-22T01:41:15;100895.75;;;18.55;100.00
54808;BME280;40708;50.364;7.550;2022-07-22T01:43:40;100887.88;;;18.48;100.00
54808;BME280;40708;50.364;7.550;2022-07-22T01:46:05;100881.41;;;18.56;100.00
54808;BME280;40708;50.364;7.550;2022-07-22T01:48:32;100885.69;;;18.62;100.00
54808;BME280;40708;50.364;7.550;2022-07-22T01:50:58;100887.75;;;18.52;100.00
54808;BME280;40708;50.364;7.550;2022-07-22T01:53:23;100885.81;;;18.57;100.00
54808;BME280;40708;50.364;7.550;2022-07-22T01:55:49;100886.66;;;18.59;100.00
54808;BME280;40708;50.364;7.550;2022-07-22T01:58:14;100892.84;;;18.63;100.00
54808;BME280;40708;50.364;7.550;2022-07-22T02:00:40;100888.38;;;18.63;100.00
54808;BME280;40708;50.364;7.550;2022-07-22T02:03:06;100890.28;;;18.58;100.00
54808;BME280;40708;50.364;7.550;2022-07-22T02:05:32;100885.88;;;18.56;100.00
54808;BME280;40708;50.364;7.550;2022-07-22T02:08:04;100877.75;;;18.57;100.00
54808;BME280;40708;50.364;7.550;2022-07-22T02:10:30;100880.53;;;18.54;100.00
54808;BME280;40708;50.364;7.550;2022-07-22T02:12:56;100887.81;;;18.51;100.00
54808;BME280;40708;50.364;7.550;2022-07-22T02:15:22;100885.91;;;18.54;100.00
54808;BME280;40708;50.364;7.550;2022-07-22T02:17:48;100885.88;;;18.56;100.00
54808;BME280;40708;50.364;7.550;2022-07-22T02:20:13;100883.97;;;18.61;100.00
54808;BME280;40708;50.364;7.550;2022-07-22T02:22:38;100882.09;;;18.63;100.00
54808;BME280;40708;50.364;7.550;2022-07-22T02:25:04;100880.47;;;18.57;100.00
54808;BME280;40708;50.364;7.550;2022-07-22T02:27:29;100873.22;;;18.61;100.00
54808;BME280;40708;50.364;7.550;2022-07-22T02:29:55;100884.88;;;18.60;100.00
54808;BME280;40708;50.364;7.550;2022-07-22T02:32:20;100880.38;;;18.60;100.00
54808;BME280;40708;50.364;7.550;2022-07-22T02:34:46;100875.13;;;18.56;100.00
54808;BME280;40708;50.364;7.550;2022-07-22T02:37:11;100875.16;;;18.54;100.00
54808;BME280;40708;50.364;7.550;2022-07-22T02:39:36;100878.72;;;18.55;100.00
54808;BME280;40708;50.364;7.550;2022-07-22T02:42:02;100879.75;;;18.51;100.00
54808;BME280;40708;50.364;7.550;2022-07-22T02:44:27;100880.97;;;18.36;100.00
54808;BME280;40708;50.364;7.550;2022-07-22T02:46:53;100882.53;;;18.44;100.00
54808;BME280;40708;50.364;7.550;2022-07-22T02:49:18;100879.25;;;18.32;100.00
54808;BME280;40708;50.364;7.550;2022-07-22T02:51:43;100879.34;;;18.29;100.00
54808;BME280;40708;50.364;7.550;2022-07-22T02:54:09;100882.19;;;18.21;100.00
54808;BME280;40708;50.364;7.550;2022-07-22T02:56:34;100873.31;;;18.19;100.00
54808;BME280;40708;50.364;7.550;2022-07-22T02:59:00;100871.53;;;18.18;100.00
54808;BME280;40708;50.364;7.550;2022-07-22T03:01:25;100871.50;;;18.20;100.00
54808;BME280;40708;50.364;7.550;2022-07-22T03:03:50;100875.03;;;18.22;100.00
54808;BME280;40708;50.364;7.550;2022-07-22T03:06:16;100884.13;;;18.16;100.00
54808;BME280;40708;50.364;7.550;2022-07-22T03:08:41;100885.06;;;18.14;100.00
54808;BME280;40708;50.364;7.550;2022-07-22T03:11:06;100883.28;;;18.13;100.00
54808;BME280;40708;50.364;7.550;2022-07-22T03:13:32;100884.25;;;18.12;100.00
54808;BME280;40708;50.364;7.550;2022-07-22T03:15:57;100895.09;;;18.07;100.00
54808;BME280;40708;50.364;7.550;2022-07-22T03:18:22;100891.53;;;18.05;100.00
54808;BME280;40708;50.364;7.550;2022-07-22T03:20:48;100889.84;;;18.01;100.00
54808;BME280;40708;50.364;7.550;2022-07-22T03:23:14;100891.66;;;18.01;100.00
54808;BME280;40708;50.364;7.550;2022-07-22T03:25:39;100898.00;;;17.97;100.00
54808;BME280;40708;50.364;7.550;2022-07-22T03:28:05;100901.69;;;17.93;100.00
54808;BME280;40708;50.364;7.550;2022-07-22T03:30:31;100897.09;;;17.98;100.00
54808;BME280;40708;50.364;7.550;2022-07-22T03:32:56;100897.97;;;17.98;100.00
54808;BME280;40708;50.364;7.550;2022-07-22T03:35:22;100890.97;;;17.91;100.00
54808;BME280;40708;50.364;7.550;2022-07-22T03:37:47;100900.78;;;17.92;100.00
54808;BME280;40708;50.364;7.550;2022-07-22T03:40:12;100898.16;;;17.91;100.00
54808;BME280;40708;50.364;7.550;2022-07-22T03:42:38;100895.56;;;17.86;100.00
54808;BME280;40708;50.364;7.550;2022-07-22T03:45:04;100899.19;;;17.85;100.00
54808;BME280;40708;50.364;7.550;2022-07-22T03:47:29;100904.47;;;17.88;100.00
54808;BME280;40708;50.364;7.550;2022-07-22T03:49:55;100904.59;;;17.82;100.00
54808;BME280;40708;50.364;7.550;2022-07-22T03:52:22;100897.53;;;17.78;100.00
54808;BME280;40708;50.364;7.550;2022-07-22T03:54:47;100895.66;;;17.81;100.00
54808;BME280;40708;50.364;7.550;2022-07-22T03:57:12;100895.63;;;17.83;100.00
54808;BME280;40708;50.364;7.550;2022-07-22T03:59:38;100901.81;;;17.87;100.00
54808;BME280;40708;50.364;7.550;2022-07-22T04:02:03;100903.66;;;17.84;100.00
54808;BME280;40708;50.364;7.550;2022-07-22T04:04:29;100900.84;;;17.89;100.00
54808;BME280;40708;50.364;7.550;2022-07-22T04:06:55;100898.28;;;17.84;100.00
54808;BME280;40708;50.364;7.550;2022-07-22T04:09:21;100907.28;;;17.82;100.00
54808;BME280;40708;50.364;7.550;2022-07-22T04:11:47;100899.13;;;17.87;100.00
54808;BME280;40708;50.364;7.550;2022-07-22T04:14:12;100902.72;;;17.85;100.00
54808;BME280;40708;50.364;7.550;2022-07-22T04:16:38;100902.63;;;17.90;100.00
54808;BME280;40708;50.364;7.550;2022-07-22T04:19:04;100899.94;;;17.90;100.00
54808;BME280;40708;50.364;7.550;2022-07-22T04:21:29;100897.13;;;17.96;100.00
54808;BME280;40708;50.364;7.550;2022-07-22T04:23:55;100900.78;;;17.92;100.00
54808;BME280;40708;50.364;7.550;2022-07-22T04:26:20;100893.63;;;17.93;100.00
54808;BME280;40708;50.364;7.550;2022-07-22T04:28:45;100890.88;;;17.96;100.00
54808;BME280;40708;50.364;7.550;2022-07-22T04:31:11;100894.53;;;17.92;100.00
54808;BME280;40708;50.364;7.550;2022-07-22T04:33:36;100897.13;;;17.96;100.00
54808;BME280;40708;50.364;7.550;2022-07-22T04:36:02;100900.69;;;17.97;100.00
54808;BME280;40708;50.364;7.550;2022-07-22T04:38:27;100897.09;;;17.98;100.00
54808;BME280;40708;50.364;7.550;2022-07-22T04:40:53;100897.03;;;18.01;100.00
54808;BME280;40708;50.364;7.550;2022-07-22T04:43:19;100893.44;;;18.02;100.00
54808;BME280;40708;50.364;7.550;2022-07-22T04:45:44;100899.78;;;17.98;100.00
54808;BME280;40708;50.364;7.550;2022-07-22T04:48:09;100896.00;;;18.05;100.00
54808;BME280;40708;50.364;7.550;2022-07-22T04:50:38;100895.94;;;18.09;100.00
54808;BME280;40708;50.364;7.550;2022-07-22T04:53:03;100895.88;;;18.11;100.00
54808;BME280;40708;50.364;7.550;2022-07-22T04:55:29;100899.25;;;18.20;100.00
54808;BME280;40708;50.364;7.550;2022-07-22T04:57:55;100899.09;;;18.26;100.00
54808;BME280;40708;50.364;7.550;2022-07-22T05:00:20;100899.56;;;18.45;100.00
54808;BME280;40708;50.364;7.550;2022-07-22T05:02:46;100891.41;;;18.48;100.00
54808;BME280;40708;50.364;7.550;2022-07-22T05:05:11;100898.44;;;18.55;100.00
54808;BME280;40708;50.364;7.550;2022-07-22T05:07:36;100889.28;;;18.62;100.00
54808;BME280;40708;50.364;7.550;2022-07-22T05:10:02;100889.53;;;18.87;100.00
54808;BME280;40708;50.364;7.550;2022-07-22T05:12:28;100885.78;;;18.92;100.00
54808;BME280;40708;50.364;7.550;2022-07-22T05:14:53;100885.72;;;18.95;100.00
54808;BME280;40708;50.364;7.550;2022-07-22T05:17:18;100883.69;;;19.05;100.00
54808;BME280;40708;50.364;7.550;2022-07-22T05:19:44;100879.06;;;19.09;100.00
54808;BME280;40708;50.364;7.550;2022-07-22T05:22:09;100874.72;;;19.05;100.00
54808;BME280;40708;50.364;7.550;2022-07-22T05:24:35;100873.59;;;19.13;100.00
54808;BME280;40708;50.364;7.550;2022-07-22T05:27:01;100867.69;;;19.31;100.00
54808;BME280;40708;50.364;7.550;2022-07-22T05:29:27;100861.28;;;19.66;100.00
54808;BME280;40708;50.364;7.550;2022-07-22T05:31:52;100869.25;;;19.98;100.00
54808;BME280;40708;50.364;7.550;2022-07-22T05:34:17;100860.34;;;19.96;100.00
54808;BME280;40708;50.364;7.550;2022-07-22T05:36:43;100863.97;;;19.95;100.00
54808;BME280;40708;50.364;7.550;2022-07-22T05:39:08;100861.06;;;20.03;100.00
54808;BME280;40708;50.364;7.550;2022-07-22T05:41:34;100855.69;;;20.31;100.00
54808;BME280;40708;50.364;7.550;2022-07-22T05:43:59;100854.19;;;20.99;100.00
54808;BME280;40708;50.364;7.550;2022-07-22T05:46:24;100840.44;;;21.31;100.00
54808;BME280;40708;50.364;7.550;2022-07-22T05:48:50;100840.13;;;21.85;100.00
54808;BME280;40708;50.364;7.550;2022-07-22T05:51:15;100850.41;;;22.22;100.00
54808;BME280;40708;50.364;7.550;2022-07-22T05:53:41;100849.63;;;22.40;100.00
54808;BME280;40708;50.364;7.550;2022-07-22T05:56:08;100852.97;;;21.57;100.00
54808;BME280;40708;50.364;7.550;2022-07-22T05:58:34;100851.59;;;21.46;100.00
54808;BME280;40708;50.364;7.550;2022-07-22T06:00:59;100850.47;;;21.74;100.00
54808;BME280;40708;50.364;7.550;2022-07-22T06:03:25;100839.75;;;22.18;100.00
54808;BME280;40708;50.364;7.550;2022-07-22T06:05:50;100842.84;;;22.30;100.00
54808;BME280;40708;50.364;7.550;2022-07-22T06:08:15;100846.47;;;22.51;100.00
54808;BME280;40708;50.364;7.550;2022-07-22T06:10:41;100838.88;;;22.61;100.00
54808;BME280;40708;50.364;7.550;2022-07-22T06:13:06;100836.34;;;22.98;100.00
54808;BME280;40708;50.364;7.550;2022-07-22T06:15:32;100827.13;;;23.02;100.00
54808;BME280;40708;50.364;7.550;2022-07-22T06:17:57;100830.78;;;23.41;100.00
54808;BME280;40708;50.364;7.550;2022-07-22T06:20:22;100830.88;;;23.96;100.00
54808;BME280;40708;50.364;7.550;2022-07-22T06:22:48;100825.97;;;23.85;100.00
54808;BME280;40708;50.364;7.550;2022-07-22T06:25:13;100830.84;;;23.40;100.00
54808;BME280;40708;50.364;7.550;2022-07-22T06:27:39;100829.84;;;23.61;100.00
54808;BME280;40708;50.364;7.550;2022-07-22T06:30:05;100836.34;;;23.18;100.00
54808;BME280;40708;50.364;7.550;2022-07-22T06:32:30;100834.03;;;23.09;100.00
54808;BME280;40708;50.364;7.550;2022-07-22T06:34:55;100845.34;;;22.98;100.00
54808;BME280;40708;50.364;7.550;2022-07-22T06:37:21;100852.53;;;22.36;100.00
54808;BME280;40708;50.364;7.550;2022-07-22T06:39:46;100848.44;;;22.47;100.00
54808;BME280;40708;50.364;7.550;2022-07-22T06:42:13;100849.19;;;22.29;100.00
54808;BME280;40708;50.364;7.550;2022-07-22T06:44:39;100842.66;;;22.13;100.00
54808;BME280;40708;50.364;7.550;2022-07-22T06:47:04;100841.00;;;21.87;100.00
54808;BME280;40708;50.364;7.550;2022-07-22T06:49:29;100846.72;;;21.78;100.00
54808;BME280;40708;50.364;7.550;2022-07-22T06:51:55;100836.66;;;21.60;100.00
54808;BME280;40708;50.364;7.550;2022-07-22T06:54:21;100838.94;;;21.71;100.00
54808;BME280;40708;50.364;7.550;2022-07-22T06:56:46;100834.44;;;22.16;100.00
54808;BME280;40708;50.364;7.550;2022-07-22T06:59:11;100830.72;;;23.02;100.00
54808;BME280;40708;50.364;7.550;2022-07-22T07:01:37;100825.81;;;24.07;100.00
54808;BME280;40708;50.364;7.550;2022-07-22T07:04:02;100832.28;;;24.23;100.00
54808;BME280;40708;50.364;7.550;2022-07-22T07:06:28;100825.72;;;24.27;100.00
54808;BME280;40708;50.364;7.550;2022-07-22T07:08:53;100836.22;;;23.97;100.00
54808;BME280;40708;50.364;7.550;2022-07-22T07:11:19;100834.31;;;23.99;100.00
54808;BME280;40708;50.364;7.550;2022-07-22T07:13:44;100827.38;;;23.75;100.00
54808;BME280;40708;50.364;7.550;2022-07-22T07:16:10;100835.50;;;23.75;100.00
54808;BME280;40708;50.364;7.550;2022-07-22T07:18:35;100826.41;;;23.76;100.00
54808;BME280;40708;50.364;7.550;2022-07-22T07:21:00;100823.97;;;23.70;100.00
54808;BME280;40708;50.364;7.550;2022-07-22T07:23:26;100827.56;;;23.52;100.00
54808;BME280;40708;50.364;7.550;2022-07-22T07:25:51;100822.38;;;23.27;100.00
54808;BME280;40708;50.364;7.550;2022-07-22T07:28:17;100820.84;;;23.60;100.00
54808;BME280;40708;50.364;7.550;2022-07-22T07:30:42;100826.31;;;23.20;100.00
54808;BME280;40708;50.364;7.550;2022-07-22T07:33:08;100826.09;;;22.64;100.00
54808;BME280;40708;50.364;7.550;2022-07-22T07:35:34;100820.56;;;22.45;100.00
54808;BME280;40708;50.364;7.550;2022-07-22T07:37:59;100822.75;;;22.58;100.00
54808;BME280;40708;50.364;7.550;2022-07-22T07:40:24;100817.00;;;22.87;100.00
54808;BME280;40708;50.364;7.550;2022-07-22T07:42:50;100805.84;;;23.72;100.00
54808;BME280;40708;50.364;7.550;2022-07-22T07:45:15;100803.84;;;24.66;100.00
54808;BME280;40708;50.364;7.550;2022-07-22T07:47:41;100791.72;;;25.40;100.00
54808;BME280;40708;50.364;7.550;2022-07-22T07:50:07;100802.75;;;26.01;100.00
54808;BME280;40708;50.364;7.550;2022-07-22T07:52:40;100783.97;;;26.73;100.00
54808;BME280;40708;50.364;7.550;2022-07-22T07:55:07;100791.78;;;27.23;100.00
54808;BME280;40708;50.364;7.550;2022-07-22T07:57:34;100788.78;;;26.84;100.00
54808;BME280;40708;50.364;7.550;2022-07-22T07:59:59;100782.59;;;27.10;100.00
54808;BME280;40708;50.364;7.550;2022-07-22T08:02:25;100790.13;;;26.61;100.00
54808;BME280;40708;50.364;7.550;2022-07-22T08:04:50;100778.59;;;27.86;100.00
54808;BME280;40708;50.364;7.550;2022-07-22T08:07:16;100778.00;;;27.95;100.00
54808;BME280;40708;50.364;7.550;2022-07-22T08:09:41;100779.84;;;27.95;100.00
54808;BME280;40708;50.364;7.550;2022-07-22T08:12:06;100777.22;;;27.93;100.00
54808;BME280;40708;50.364;7.550;2022-07-22T08:14:32;100772.47;;;27.26;100.00
54808;BME280;40708;50.364;7.550;2022-07-22T08:16:58;100764.94;;;28.27;100.00
54808;BME280;40708;50.364;7.550;2022-07-22T08:19:24;100760.66;;;28.50;100.00
54808;BME280;40708;50.364;7.550;2022-07-22T08:21:49;100759.22;;;29.46;100.00
54808;BME280;40708;50.364;7.550;2022-07-22T08:24:15;100761.13;;;29.46;100.00
54808;BME280;40708;50.364;7.550;2022-07-22T08:26:40;100762.97;;;29.33;100.00
54808;BME280;40708;50.364;7.550;2022-07-22T08:29:05;100765.75;;;28.68;100.00
54808;BME280;40708;50.364;7.550;2022-07-22T08:31:33;100758.78;;;28.77;100.00
54808;BME280;40708;50.364;7.550;2022-07-22T08:34:00;100766.25;;;28.61;100.00
54808;BME280;40708;50.364;7.550;2022-07-22T08:36:26;100757.03;;;28.37;100.00
54808;BME280;40708;50.364;7.550;2022-07-22T08:38:51;100760.78;;;27.81;100.00
54808;BME280;40708;50.364;7.550;2022-07-22T08:41:17;100750.38;;;28.14;100.00
54808;BME280;40708;50.364;7.550;2022-07-22T08:43:43;100749.44;;;27.60;100.00
54808;BME280;40708;50.364;7.550;2022-07-22T08:46:12;100751.28;;;27.59;100.00
54808;BME280;40708;50.364;7.550;2022-07-22T08:48:38;100752.50;;;27.82;100.00
54808;BME280;40708;50.364;7.550;2022-07-22T08:51:04;100760.00;;;26.94;100.00
54808;BME280;40708;50.364;7.550;2022-07-22T08:53:30;100736.22;;;27.81;100.00
54808;BME280;40708;50.364;7.550;2022-07-22T08:55:55;100744.41;;;28.61;100.00
54808;BME280;40708;50.364;7.550;2022-07-22T08:58:21;100749.63;;;27.98;100.00
54808;BME280;40708;50.364;7.550;2022-07-22T09:00:46;100755.16;;;28.10;100.00
54808;BME280;40708;50.364;7.550;2022-07-22T09:03:28;100747.00;;;28.37;100.00
54808;BME280;40708;50.364;7.550;2022-07-22T09:05:54;100740.34;;;28.41;100.00
54808;BME280;40708;50.364;7.550;2022-07-22T09:08:20;100738.50;;;28.54;100.00
54808;BME280;40708;50.364;7.550;2022-07-22T09:10:46;100733.91;;;28.94;100.00
54808;BME280;40708;50.364;7.550;2022-07-22T09:13:11;100742.72;;;28.46;100.00
54808;BME280;40708;50.364;7.550;2022-07-22T09:15:46;100743.69;;;27.91;100.00
54808;BME280;40708;50.364;7.550;2022-07-22T09:18:12;100737.06;;;28.88;100.00
54808;BME280;40708;50.364;7.550;2022-07-22T09:20:38;100739.31;;;27.89;100.00
54808;BME280;40708;50.364;7.550;2022-07-22T09:25:37;100732.72;;;29.23;100.00
54808;BME280;40708;50.364;7.550;2022-07-22T09:30:34;100730.72;;;29.25;100.00
54808;BME280;40708;50.364;7.550;2022-07-22T09:33:00;100721.84;;;29.60;100.00
54808;BME280;40708;50.364;7.550;2022-07-22T09:35:25;100733.00;;;29.57;100.00
54808;BME280;40708;50.364;7.550;2022-07-22T09:37:58;100729.09;;;28.72;100.00
54808;BME280;40708;50.364;7.550;2022-07-22T09:40:28;100730.50;;;29.03;100.00
54808;BME280;40708;50.364;7.550;2022-07-22T09:43:05;100727.31;;;28.84;100.00
54808;BME280;40708;50.364;7.550;2022-07-22T09:45:32;100724.72;;;28.70;100.00
54808;BME280;40708;50.364;7.550;2022-07-22T09:47:59;100733.00;;;28.29;100.00
54808;BME280;40708;50.364;7.550;2022-07-22T09:50:30;100725.91;;;28.39;100.00
54808;BME280;40708;50.364;7.550;2022-07-22T09:52:58;100723.19;;;29.29;100.00
54808;BME280;40708;50.364;7.550;2022-07-22T09:55:24;100713.03;;;29.31;100.00
54808;BME280;40708;50.364;7.550;2022-07-22T09:57:52;100720.31;;;28.15;100.00
54808;BME280;40708;50.364;7.550;2022-07-22T10:00:20;100705.88;;;28.53;100.00
54808;BME280;40708;50.364;7.550;2022-07-22T10:03:00;100710.97;;;27.91;100.00
54808;BME280;40708;50.364;7.550;2022-07-22T10:05:37;100710.34;;;28.14;100.00
54808;BME280;40708;50.364;7.550;2022-07-22T10:08:04;100709.03;;;27.93;100.00
54808;BME280;40708;50.364;7.550;2022-07-22T10:10:31;100706.19;;;28.61;100.00
54808;BME280;40708;50.364;7.550;2022-07-22T10:12:58;100699.22;;;29.20;100.00
54808;BME280;40708;50.364;7.550;2022-07-22T10:15:25;100702.53;;;29.25;100.00
54808;BME280;40708;50.364;7.550;2022-07-22T10:17:54;100698.69;;;29.27;100.00
54808;BME280;40708;50.364;7.550;2022-07-22T10:20:22;100703.31;;;29.63;100.00
54808;BME280;40708;50.364;7.550;2022-07-22T10:25:19;100688.69;;;28.38;100.00
54808;BME280;40708;50.364;7.550;2022-07-22T10:28:03;100686.84;;;28.51;100.00
54808;BME280;40708;50.364;7.550;2022-07-22T10:35:31;100670.63;;;28.87;100.00
54808;BME280;40708;50.364;7.550;2022-07-22T10:37:59;100670.81;;;28.59;100.00
54808;BME280;40708;50.364;7.550;2022-07-22T10:40:30;100680.63;;;27.56;100.00
54808;BME280;40708;50.364;7.550;2022-07-22T10:43:05;100664.66;;;28.43;100.00
54808;BME280;40708;50.364;7.550;2022-07-22T10:45:46;100670.84;;;28.07;100.00
54808;BME280;40708;50.364;7.550;2022-07-22T10:50:44;100658.53;;;28.91;100.00
54808;BME280;40708;50.364;7.550;2022-07-22T10:53:15;100667.00;;;29.37;100.00
54808;BME280;40708;50.364;7.550;2022-07-22T10:56:02;100664.34;;;29.72;100.00
54808;BME280;40708;50.364;7.550;2022-07-22T11:01:00;100645.50;;;28.82;100.00
54808;BME280;40708;50.364;7.550;2022-07-22T11:03:31;100644.53;;;28.96;100.00
54808;BME280;40708;50.364;7.550;2022-07-22T11:08:44;100638.34;;;28.17;100.00
54808;BME280;40708;50.364;7.550;2022-07-22T11:11:10;100634.84;;;28.27;100.00
54808;BME280;40708;50.364;7.550;2022-07-22T11:13:38;100631.72;;;28.46;100.00
54808;BME280;40708;50.364;7.550;2022-07-22T11:16:14;100625.28;;;28.34;100.00
54808;BME280;40708;50.364;7.550;2022-07-22T11:18:54;100632.84;;;28.81;100.00
54808;BME280;40708;50.364;7.550;2022-07-22T11:21:23;100633.28;;;28.88;100.00
54808;BME280;40708;50.364;7.550;2022-07-22T11:23:51;100626.41;;;28.70;100.00
54808;BME280;40708;50.364;7.550;2022-07-22T11:26:18;100620.53;;;29.37;100.00
54808;BME280;40708;50.364;7.550;2022-07-22T11:28:45;100612.16;;;29.03;100.00
54808;BME280;40708;50.364;7.550;2022-07-22T11:31:14;100616.53;;;29.05;100.00
54808;BME280;40708;50.364;7.550;2022-07-22T11:33:40;100619.44;;;29.27;100.00
54808;BME280;40708;50.364;7.550;2022-07-22T11:36:07;100617.25;;;29.20;100.00
54808;BME280;40708;50.364;7.550;2022-07-22T11:38:41;100617.81;;;29.25;100.00
54808;BME280;40708;50.364;7.550;2022-07-22T11:41:07;100616.56;;;28.80;100.00
54808;BME280;40708;50.364;7.550;2022-07-22T11:43:38;100624.59;;;29.32;100.00
54808;BME280;40708;50.364;7.550;2022-07-22T11:46:03;100616.28;;;29.21;100.00
54808;BME280;40708;50.364;7.550;2022-07-22T11:48:29;100617.91;;;29.36;100.00
54808;BME280;40708;50.364;7.550;2022-07-22T11:51:05;100613.25;;;29.00;100.00
54808;BME280;40708;50.364;7.550;2022-07-22T11:53:31;100612.88;;;29.30;100.00
54808;BME280;40708;50.364;7.550;2022-07-22T11:55:59;100593.75;;;29.17;100.00
54808;BME280;40708;50.364;7.550;2022-07-22T12:00:59;100595.69;;;28.41;100.00
54808;BME280;40708;50.364;7.550;2022-07-22T12:03:25;100588.94;;;28.34;100.00
54808;BME280;40708;50.364;7.550;2022-07-22T12:05:50;100585.09;;;28.37;100.00
54808;BME280;40708;50.364;7.550;2022-07-22T12:08:16;100588.06;;;28.71;100.00
54808;BME280;40708;50.364;7.550;2022-07-22T12:10:42;100590.06;;;29.06;100.00
54808;BME280;40708;50.364;7.550;2022-07-22T12:13:11;100585.41;;;28.95;100.00
54808;BME280;40708;50.364;7.550;2022-07-22T12:15:37;100581.69;;;28.96;100.00
54808;BME280;40708;50.364;7.550;2022-07-22T12:18:22;100577.91;;;29.35;100.00
54808;BME280;40708;50.364;7.550;2022-07-22T12:20:49;100572.88;;;29.16;100.00
54808;BME280;40708;50.364;7.550;2022-07-22T12:23:15;100572.56;;;29.21;100.00
54808;BME280;40708;50.364;7.550;2022-07-22T12:26:09;100568.84;;;28.85;100.00
54808;BME280;40708;50.364;7.550;2022-07-22T12:28:34;100564.28;;;29.10;100.00
54808;BME280;40708;50.364;7.550;2022-07-22T12:31:00;100563.63;;;29.19;100.00
54808;BME280;40708;50.364;7.550;2022-07-22T12:33:25;100553.69;;;29.65;100.00
54808;BME280;40708;50.364;7.550;2022-07-22T12:36:03;100557.72;;;29.72;100.00
54808;BME280;40708;50.364;7.550;2022-07-22T12:38:29;100555.38;;;29.55;100.00
54808;BME280;40708;50.364;7.550;2022-07-22T12:40:55;100556.59;;;29.27;100.00
54808;BME280;40708;50.364;7.550;2022-07-22T12:43:24;100547.34;;;29.41;100.00
54808;BME280;40708;50.364;7.550;2022-07-22T12:45:50;100550.47;;;29.71;100.00
54808;BME280;40708;50.364;7.550;2022-07-22T12:48:16;100541.53;;;30.04;100.00
54808;BME280;40708;50.364;7.550;2022-07-22T12:50:56;100543.56;;;30.13;100.00
54808;BME280;40708;50.364;7.550;2022-07-22T12:53:23;100543.41;;;30.38;100.00
54808;BME280;40708;50.364;7.550;2022-07-22T12:55:51;100543.63;;;30.68;99.12
54808;BME280;40708;50.364;7.550;2022-07-22T12:58:17;100546.31;;;30.24;100.00
54808;BME280;40708;50.364;7.550;2022-07-22T13:00:49;100539.41;;;30.87;100.00